createdAt,value
2016-07-12T00:00:36.117Z,1003.36
2016-07-12T00:01:36.105Z,1003.36
2016-07-12T00:02:36.093Z,1003.37
2016-07-12T00:03:36.084Z,1003.29
2016-07-12T00:04:36.072Z,1003.32
2016-07-12T00:05:36.062Z,1003.28
2016-07-12T00:06:36.052Z,1003.27
2016-07-12T00:07:36.040Z,1003.28
2016-07-12T00:08:36.029Z,1003.28
2016-07-12T00:09:36.018Z,1003.26
2016-07-12T00:10:36.007Z,1003.25
2016-07-12T00:11:35.998Z,1003.23
2016-07-12T00:12:35.988Z,1003.16
2016-07-12T00:13:35.976Z,1003.16
2016-07-12T00:14:35.966Z,1003.15
2016-07-12T00:15:35.953Z,1003.16
2016-07-12T00:16:35.954Z,1003.14
2016-07-12T00:17:35.941Z,1003.07
2016-07-12T00:18:35.921Z,1003.14
2016-07-12T00:19:35.909Z,1003.1
2016-07-12T00:20:35.898Z,1003.09
2016-07-12T00:21:35.889Z,1003.08
2016-07-12T00:22:35.878Z,1003.07
2016-07-12T00:23:35.867Z,1003.08
2016-07-12T00:24:36.060Z,1003.04
2016-07-12T00:25:35.844Z,1003.05
2016-07-12T00:26:35.833Z,1003.06
2016-07-12T00:27:35.823Z,1003.06
2016-07-12T00:28:35.811Z,1003.06
2016-07-12T00:29:35.799Z,1003.05
2016-07-12T00:30:35.790Z,1003.07
2016-07-12T00:31:35.782Z,1003.03
2016-07-12T00:32:35.769Z,1003.04
2016-07-12T00:33:35.756Z,1003.05
2016-07-12T00:34:35.746Z,1003.02
2016-07-12T00:35:35.737Z,1003.05
2016-07-12T00:36:35.724Z,1003.05
2016-07-12T00:37:35.712Z,1003.04
2016-07-12T00:38:35.704Z,1003.07
2016-07-12T00:39:35.692Z,1003.04
2016-07-12T00:40:35.679Z,1003.06
2016-07-12T00:41:35.670Z,1003.07
2016-07-12T00:42:35.657Z,1003.09
2016-07-12T00:43:35.647Z,1003.09
2016-07-12T00:44:35.636Z,1003.13
2016-07-12T00:45:35.626Z,1003.1
2016-07-12T00:46:35.615Z,1003.1
2016-07-12T00:47:35.603Z,1003.13
2016-07-12T00:48:35.592Z,1003.14
2016-07-12T00:49:35.582Z,1003.14
2016-07-12T00:50:35.569Z,1003.13
2016-07-12T00:51:35.559Z,1003.13
2016-07-12T00:52:35.550Z,1003.15
2016-07-12T00:53:35.539Z,1003.16
2016-07-12T00:54:35.526Z,1003.17
2016-07-12T00:55:35.517Z,1003.16
2016-07-12T00:56:35.506Z,1003.19
2016-07-12T00:57:35.494Z,1003.19
2016-07-12T00:58:35.484Z,1003.2
2016-07-12T00:59:35.473Z,1003.2
2016-07-12T01:00:35.459Z,1003.2
2016-07-12T01:01:35.451Z,1003.21
2016-07-12T01:02:35.438Z,1003.23
2016-07-12T01:03:35.429Z,1003.23
2016-07-12T01:04:35.417Z,1003.22
2016-07-12T01:05:35.407Z,1003.25
2016-07-12T01:06:35.394Z,1003.21
2016-07-12T01:07:35.385Z,1003.23
2016-07-12T01:08:35.374Z,1003.25
2016-07-12T01:09:35.361Z,1003.22
2016-07-12T01:10:35.351Z,1003.25
2016-07-12T01:11:35.339Z,1003.28
2016-07-12T01:12:35.328Z,1003.27
2016-07-12T01:13:35.316Z,1003.29
2016-07-12T01:14:35.306Z,1003.28
2016-07-12T01:15:35.297Z,1003.26
2016-07-12T01:16:35.283Z,1003.23
2016-07-12T01:17:35.275Z,1003.25
2016-07-12T01:18:35.262Z,1003.25
2016-07-12T01:19:35.251Z,1003.27
2016-07-12T01:20:35.242Z,1003.25
2016-07-12T01:21:35.228Z,1003.24
2016-07-12T01:22:35.216Z,1003.23
2016-07-12T01:23:35.207Z,1003.21
2016-07-12T01:24:35.194Z,1003.24
2016-07-12T01:25:35.182Z,1003.23
2016-07-12T01:26:35.174Z,1003.24
2016-07-12T01:27:35.163Z,1003.26
2016-07-12T01:28:35.151Z,1003.25
2016-07-12T01:29:35.139Z,1003.23
2016-07-12T01:30:35.131Z,1003.21
2016-07-12T01:31:35.120Z,1003.21
2016-07-12T01:32:35.109Z,1003.18
2016-07-12T01:33:35.097Z,1003.21
2016-07-12T01:34:35.086Z,1003.17
2016-07-12T01:35:35.076Z,1003.21
2016-07-12T01:36:35.062Z,1003.15
2016-07-12T01:37:35.052Z,1003.19
2016-07-12T01:38:35.041Z,1003.17
2016-07-12T01:39:35.029Z,1003.13
2016-07-12T01:40:35.018Z,1003.14
2016-07-12T01:41:35.007Z,1003.15
2016-07-12T01:42:34.995Z,1003.1
2016-07-12T01:43:34.988Z,1003.13
2016-07-12T01:44:34.972Z,1003.15
2016-07-12T01:45:34.962Z,1003.12
2016-07-12T01:46:34.952Z,1003.11
2016-07-12T01:47:34.940Z,1003.1
2016-07-12T01:48:34.929Z,1003.17
2016-07-12T01:49:34.918Z,1003.17
2016-07-12T01:50:34.907Z,1003.17
2016-07-12T01:51:34.898Z,1003.15
2016-07-12T01:52:34.884Z,1003.13
2016-07-12T01:53:34.873Z,1003.11
2016-07-12T01:54:34.861Z,1003.14
2016-07-12T01:55:34.850Z,1003.1
2016-07-12T01:56:34.839Z,1003.11
2016-07-12T01:57:34.826Z,1003.1
2016-07-12T01:58:34.816Z,1003.05
2016-07-12T01:59:34.806Z,1003.07
2016-07-12T02:00:34.793Z,1003.1
2016-07-12T02:01:34.782Z,1003.11
2016-07-12T02:02:34.783Z,1003.11
2016-07-12T02:03:34.762Z,1003.16
2016-07-12T02:04:34.751Z,1003.14
2016-07-12T02:05:34.738Z,1003.17
2016-07-12T02:06:34.729Z,1003.15
2016-07-12T02:07:34.716Z,1003.18
2016-07-12T02:08:34.705Z,1003.16
2016-07-12T02:09:34.693Z,1003.12
2016-07-12T02:10:34.683Z,1003.15
2016-07-12T02:11:34.670Z,1003.2
2016-07-12T02:12:34.664Z,1003.19
2016-07-12T02:13:34.650Z,1003.17
2016-07-12T02:14:34.636Z,1003.15
2016-07-12T02:15:34.624Z,1003.15
2016-07-12T02:16:34.615Z,1003.16
2016-07-12T02:17:34.602Z,1003.14
2016-07-12T02:18:34.592Z,1003.16
2016-07-12T02:19:34.579Z,1003.1
2016-07-12T02:20:34.569Z,1003.13
2016-07-12T02:21:34.555Z,1003.19
2016-07-12T02:22:34.548Z,1003.14
2016-07-12T02:23:34.534Z,1003.16
2016-07-12T02:24:34.725Z,1003.17
2016-07-12T02:25:34.512Z,1003.16
2016-07-12T02:26:34.499Z,1003.16
2016-07-12T02:27:34.490Z,1003.14
2016-07-12T02:28:34.478Z,1003.12
2016-07-12T02:29:34.465Z,1003.13
2016-07-12T02:30:34.454Z,1003.18
2016-07-12T02:31:34.442Z,1003.18
2016-07-12T02:32:34.431Z,1003.19
2016-07-12T02:33:34.421Z,1003.18
2016-07-12T02:34:34.419Z,1003.21
2016-07-12T02:35:34.396Z,1003.24
2016-07-12T02:36:34.386Z,1003.24
2016-07-12T02:37:34.385Z,1003.25
2016-07-12T02:38:34.362Z,1003.23
2016-07-12T02:39:34.352Z,1003.24
2016-07-12T02:40:34.341Z,1003.25
2016-07-12T02:41:34.328Z,1003.22
2016-07-12T02:42:34.316Z,1003.19
2016-07-12T02:43:34.306Z,1003.2
2016-07-12T02:44:34.296Z,1003.21
2016-07-12T02:45:34.283Z,1003.16
2016-07-12T02:46:34.271Z,1003.19
2016-07-12T02:47:34.260Z,1003.2
2016-07-12T02:48:34.249Z,1003.24
2016-07-12T02:49:34.237Z,1003.26
2016-07-12T02:50:34.226Z,1003.31
2016-07-12T02:51:34.215Z,1003.26
2016-07-12T02:52:34.202Z,1003.27
2016-07-12T02:53:34.190Z,1003.3
2016-07-12T02:54:34.181Z,1003.27
2016-07-12T02:55:34.168Z,1003.26
2016-07-12T02:56:34.159Z,1003.28
2016-07-12T02:57:34.150Z,1003.24
2016-07-12T02:58:34.132Z,1003.28
2016-07-12T02:59:34.131Z,1003.3
2016-07-12T03:00:34.111Z,1003.3
2016-07-12T03:01:34.099Z,1003.33
2016-07-12T03:02:34.087Z,1003.33
2016-07-12T03:03:34.074Z,1003.37
2016-07-12T03:04:34.062Z,1003.38
2016-07-12T03:05:34.052Z,1003.41
2016-07-12T03:06:34.057Z,1003.43
2016-07-12T03:07:34.036Z,1003.38
2016-07-12T03:08:34.022Z,1003.43
2016-07-12T03:09:34.005Z,1003.41
2016-07-12T03:10:34.001Z,1003.45
2016-07-12T03:11:33.983Z,1003.48
2016-07-12T03:12:33.972Z,1003.5
2016-07-12T03:13:33.961Z,1003.5
2016-07-12T03:14:33.949Z,1003.48
2016-07-12T03:15:33.937Z,1003.49
2016-07-12T03:16:33.924Z,1003.51
2016-07-12T03:17:33.926Z,1003.47
2016-07-12T03:18:33.901Z,1003.5
2016-07-12T03:19:33.888Z,1003.48
2016-07-12T03:20:33.877Z,1003.5
2016-07-12T03:21:33.865Z,1003.51
2016-07-12T03:22:33.854Z,1003.46
2016-07-12T03:23:33.842Z,1003.51
2016-07-12T03:24:33.834Z,1003.5
2016-07-12T03:25:33.818Z,1003.48
2016-07-12T03:26:33.808Z,1003.48
2016-07-12T03:27:33.796Z,1003.47
2016-07-12T03:28:33.782Z,1003.45
2016-07-12T03:29:33.772Z,1003.45
2016-07-12T03:30:33.760Z,1003.44
2016-07-12T03:31:33.748Z,1003.45
2016-07-12T03:32:33.737Z,1003.45
2016-07-12T03:33:33.724Z,1003.46
2016-07-12T03:34:33.713Z,1003.45
2016-07-12T03:35:33.703Z,1003.46
2016-07-12T03:36:33.690Z,1003.44
2016-07-12T03:37:33.677Z,1003.48
2016-07-12T03:38:33.672Z,1003.48
2016-07-12T03:39:33.652Z,1003.46
2016-07-12T03:40:33.640Z,1003.47
2016-07-12T03:41:33.630Z,1003.5
2016-07-12T03:42:33.619Z,1003.51
2016-07-12T03:43:33.609Z,1003.51
2016-07-12T03:44:33.595Z,1003.48
2016-07-12T03:45:33.583Z,1003.49
2016-07-12T03:46:33.571Z,1003.46
2016-07-12T03:47:33.559Z,1003.47
2016-07-12T03:48:33.551Z,1003.5
2016-07-12T03:49:33.538Z,1003.49
2016-07-12T03:50:33.526Z,1003.46
2016-07-12T03:51:33.524Z,1003.46
2016-07-12T03:52:33.515Z,1003.45
2016-07-12T03:53:33.489Z,1003.48
2016-07-12T03:54:33.475Z,1003.47
2016-07-12T03:55:33.474Z,1003.55
2016-07-12T03:56:33.453Z,1003.54
2016-07-12T03:57:33.440Z,1003.57
2016-07-12T03:58:33.444Z,1003.55
2016-07-12T03:59:33.421Z,1003.57
2016-07-12T04:00:33.409Z,1003.59
2016-07-12T04:01:33.399Z,1003.59
2016-07-12T04:02:33.384Z,1003.59
2016-07-12T04:03:33.371Z,1003.61
2016-07-12T04:04:33.360Z,1003.6
2016-07-12T04:05:33.347Z,1003.6
2016-07-12T04:06:33.336Z,1003.59
2016-07-12T04:07:33.326Z,1003.6
2016-07-12T04:08:33.318Z,1003.58
2016-07-12T04:09:33.302Z,1003.58
2016-07-12T04:10:33.290Z,1003.54
2016-07-12T04:11:33.280Z,1003.55
2016-07-12T04:12:33.267Z,1003.52
2016-07-12T04:13:33.256Z,1003.5
2016-07-12T04:14:33.243Z,1003.56
2016-07-12T04:15:33.232Z,1003.59
2016-07-12T04:16:33.219Z,1003.6
2016-07-12T04:17:33.207Z,1003.57
2016-07-12T04:18:33.197Z,1003.56
2016-07-12T04:19:33.188Z,1003.59
2016-07-12T04:20:33.173Z,1003.58
2016-07-12T04:21:33.161Z,1003.57
2016-07-12T04:22:33.154Z,1003.58
2016-07-12T04:23:33.140Z,1003.63
2016-07-12T04:24:33.126Z,1003.58
2016-07-12T04:25:33.116Z,1003.68
2016-07-12T04:26:33.115Z,1003.64
2016-07-12T04:27:33.093Z,1003.67
2016-07-12T04:28:33.080Z,1003.7
2016-07-12T04:29:33.069Z,1003.69
2016-07-12T04:30:33.058Z,1003.65
2016-07-12T04:31:33.047Z,1003.7
2016-07-12T04:32:33.034Z,1003.69
2016-07-12T04:33:33.021Z,1003.66
2016-07-12T04:34:33.013Z,1003.67
2016-07-12T04:35:32.999Z,1003.7
2016-07-12T04:36:32.987Z,1003.72
2016-07-12T04:37:32.983Z,1003.67
2016-07-12T04:38:32.965Z,1003.72
2016-07-12T04:39:32.954Z,1003.7
2016-07-12T04:40:32.944Z,1003.66
2016-07-12T04:41:32.934Z,1003.68
2016-07-12T04:42:32.920Z,1003.66
2016-07-12T04:43:32.909Z,1003.7
2016-07-12T04:44:32.901Z,1003.71
2016-07-12T04:45:32.887Z,1003.74
2016-07-12T04:46:32.876Z,1003.72
2016-07-12T04:47:32.865Z,1003.76
2016-07-12T04:48:32.856Z,1003.75
2016-07-12T04:49:32.842Z,1003.76
2016-07-12T04:50:32.831Z,1003.74
2016-07-12T04:51:32.819Z,1003.75
2016-07-12T04:52:32.808Z,1003.76
2016-07-12T04:53:32.800Z,1003.73
2016-07-12T04:54:32.789Z,1003.73
2016-07-12T04:55:32.774Z,1003.76
2016-07-12T04:56:32.766Z,1003.77
2016-07-12T04:57:32.750Z,1003.78
2016-07-12T04:58:32.739Z,1003.75
2016-07-12T04:59:32.733Z,1003.79
2016-07-12T05:00:32.717Z,1003.77
2016-07-12T05:01:32.706Z,1003.8
2016-07-12T05:02:32.694Z,1003.81
2016-07-12T05:03:32.681Z,1003.8
2016-07-12T05:04:32.671Z,1003.78
2016-07-12T05:05:32.660Z,1003.81
2016-07-12T05:06:32.649Z,1003.81
2016-07-12T05:07:32.636Z,1003.84
2016-07-12T05:08:32.627Z,1003.83
2016-07-12T05:09:32.615Z,1003.85
2016-07-12T05:10:32.604Z,1003.81
2016-07-12T05:11:32.592Z,1003.79
2016-07-12T05:12:32.580Z,1003.86
2016-07-12T05:13:32.578Z,1003.85
2016-07-12T05:14:32.556Z,1003.91
2016-07-12T05:15:32.547Z,1003.91
2016-07-12T05:16:32.538Z,1003.94
2016-07-12T05:17:32.524Z,1003.93
2016-07-12T05:18:32.514Z,1003.93
2016-07-12T05:19:32.504Z,1003.95
2016-07-12T05:20:32.491Z,1003.9
2016-07-12T05:21:32.478Z,1003.96
2016-07-12T05:22:32.468Z,1003.97
2016-07-12T05:23:32.456Z,1003.97
2016-07-12T05:24:32.446Z,1003.94
2016-07-12T05:25:32.435Z,1003.96
2016-07-12T05:26:32.421Z,1003.95
2016-07-12T05:27:32.410Z,1004
2016-07-12T05:28:32.401Z,1003.96
2016-07-12T05:29:32.389Z,1004.01
2016-07-12T05:30:32.379Z,1004.01
2016-07-12T05:31:32.366Z,1004.04
2016-07-12T05:32:32.355Z,1004.1
2016-07-12T05:33:32.344Z,1004.06
2016-07-12T05:34:32.332Z,1004.12
2016-07-12T05:35:32.321Z,1004.16
2016-07-12T05:36:32.309Z,1004.14
2016-07-12T05:37:32.298Z,1004.22
2016-07-12T05:38:32.290Z,1004.16
2016-07-12T05:39:32.278Z,1004.17
2016-07-12T05:40:32.267Z,1004.15
2016-07-12T05:41:32.253Z,1004.18
2016-07-12T05:42:32.243Z,1004.22
2016-07-12T05:43:32.232Z,1004.2
2016-07-12T05:44:32.219Z,1004.21
2016-07-12T05:45:32.208Z,1004.18
2016-07-12T05:46:32.198Z,1004.22
2016-07-12T05:47:32.185Z,1004.22
2016-07-12T05:48:32.174Z,1004.23
2016-07-12T05:49:32.164Z,1004.21
2016-07-12T05:50:32.152Z,1004.19
2016-07-12T05:51:32.140Z,1004.17
2016-07-12T05:52:32.132Z,1004.16
2016-07-12T05:53:32.117Z,1004.2
2016-07-12T05:54:32.110Z,1004.23
2016-07-12T05:55:32.095Z,1004.25
2016-07-12T05:56:32.085Z,1004.25
2016-07-12T05:57:32.076Z,1004.26
2016-07-12T05:58:32.061Z,1004.24
2016-07-12T05:59:32.051Z,1004.28
2016-07-12T06:00:32.040Z,1004.28
2016-07-12T06:01:32.028Z,1004.24
2016-07-12T06:02:32.019Z,1004.26
2016-07-12T06:03:32.007Z,1004.25
2016-07-12T06:04:31.996Z,1004.24
2016-07-12T06:05:31.994Z,1004.24
2016-07-12T06:06:31.973Z,1004.22
2016-07-12T06:07:31.962Z,1004.16
2016-07-12T06:08:31.952Z,1004.2
2016-07-12T06:09:31.941Z,1004.22
2016-07-12T06:10:31.930Z,1004.24
2016-07-12T06:11:31.922Z,1004.26
2016-07-12T06:12:31.909Z,1004.24
2016-07-12T06:13:31.898Z,1004.31
2016-07-12T06:14:31.891Z,1004.29
2016-07-12T06:15:31.874Z,1004.3
2016-07-12T06:16:31.862Z,1004.31
2016-07-12T06:17:31.858Z,1004.3
2016-07-12T06:18:31.846Z,1004.24
2016-07-12T06:19:31.832Z,1004.22
2016-07-12T06:20:31.822Z,1004.17
2016-07-12T06:21:31.811Z,1004.17
2016-07-12T06:22:31.800Z,1004.16
2016-07-12T06:23:31.846Z,1004.17
2016-07-12T06:24:31.781Z,1004.13
2016-07-12T06:25:31.768Z,1004.12
2016-07-12T06:26:31.760Z,1004.12
2016-07-12T06:27:31.748Z,1004.09
2016-07-12T06:28:31.738Z,1004.11
2016-07-12T06:29:31.731Z,1004.13
2016-07-12T06:30:31.722Z,1004.08
2016-07-12T06:31:31.708Z,1004.06
2016-07-12T06:32:31.697Z,1004.09
2016-07-12T06:33:31.686Z,1004.08
2016-07-12T06:34:31.678Z,1004.09
2016-07-12T06:35:31.668Z,1004.08
2016-07-12T06:36:31.656Z,1004.14
2016-07-12T06:37:31.651Z,1004.18
2016-07-12T06:38:31.638Z,1004.25
2016-07-12T06:39:31.625Z,1004.22
2016-07-12T06:40:31.613Z,1004.14
2016-07-12T06:41:31.615Z,1004.19
2016-07-12T06:42:31.592Z,1004.23
2016-07-12T06:43:31.584Z,1004.14
2016-07-12T06:44:31.573Z,1004.19
2016-07-12T06:45:31.563Z,1004.17
2016-07-12T06:46:31.555Z,1004.15
2016-07-12T06:47:31.540Z,1004.14
2016-07-12T06:48:31.532Z,1004.17
2016-07-12T06:49:31.526Z,1004.18
2016-07-12T06:50:31.511Z,1004.18
2016-07-12T06:51:31.507Z,1004.2
2016-07-12T06:52:31.490Z,1004.23
2016-07-12T06:53:31.477Z,1004.21
2016-07-12T06:54:31.469Z,1004.2
2016-07-12T06:55:31.459Z,1004.23
2016-07-12T06:56:31.447Z,1004.24
2016-07-12T06:57:31.438Z,1004.28
2016-07-12T06:58:31.430Z,1004.3
2016-07-12T06:59:31.419Z,1004.28
2016-07-12T07:00:31.407Z,1004.3
2016-07-12T07:01:31.397Z,1004.31
2016-07-12T07:02:31.387Z,1004.37
2016-07-12T07:03:31.377Z,1004.3
2016-07-12T07:04:31.366Z,1004.31
2016-07-12T07:05:31.357Z,1004.27
2016-07-12T07:06:31.348Z,1004.26
2016-07-12T07:07:31.339Z,1004.27
2016-07-12T07:08:31.327Z,1004.29
2016-07-12T07:09:31.316Z,1004.31
2016-07-12T07:10:31.306Z,1004.29
2016-07-12T07:11:31.303Z,1004.32
2016-07-12T07:12:31.287Z,1004.35
2016-07-12T07:13:31.278Z,1004.31
2016-07-12T07:14:31.268Z,1004.31
2016-07-12T07:15:31.256Z,1004.34
2016-07-12T07:16:31.247Z,1004.34
2016-07-12T07:17:31.236Z,1004.34
2016-07-12T07:18:31.230Z,1004.39
2016-07-12T07:19:31.218Z,1004.4
2016-07-12T07:20:31.207Z,1004.42
2016-07-12T07:21:31.197Z,1004.42
2016-07-12T07:22:31.190Z,1004.38
2016-07-12T07:23:31.179Z,1004.38
2016-07-12T07:24:31.169Z,1004.35
2016-07-12T07:25:31.158Z,1004.33
2016-07-12T07:26:31.148Z,1004.32
2016-07-12T07:27:31.140Z,1004.36
2016-07-12T07:28:31.140Z,1004.36
2016-07-12T07:29:31.121Z,1004.36
2016-07-12T07:30:31.111Z,1004.33
2016-07-12T07:31:31.102Z,1004.33
2016-07-12T07:32:31.093Z,1004.37
2016-07-12T07:33:31.082Z,1004.34
2016-07-12T07:34:31.074Z,1004.34
2016-07-12T07:35:31.065Z,1004.36
2016-07-12T07:36:31.058Z,1004.3
2016-07-12T07:37:31.045Z,1004.32
2016-07-12T07:38:31.041Z,1004.41
2016-07-12T07:39:31.080Z,1004.4
2016-07-12T07:40:31.020Z,1004.43
2016-07-12T07:41:31.011Z,1004.51
2016-07-12T07:42:31.007Z,1004.37
2016-07-12T07:43:30.998Z,1004.47
2016-07-12T07:44:30.991Z,1004.44
2016-07-12T07:45:30.984Z,1004.41
2016-07-12T07:46:30.976Z,1004.45
2016-07-12T07:47:30.971Z,1004.46
2016-07-12T07:48:30.961Z,1004.45
2016-07-12T07:49:30.959Z,1004.47
2016-07-12T07:50:30.950Z,1004.51
2016-07-12T07:51:30.945Z,1004.5
2016-07-12T07:52:30.937Z,1004.47
2016-07-12T07:53:30.931Z,1004.49
2016-07-12T07:54:30.926Z,1004.51
2016-07-12T07:55:30.918Z,1004.48
2016-07-12T07:56:30.914Z,1004.47
2016-07-12T07:57:30.910Z,1004.46
2016-07-12T07:58:30.900Z,1004.49
2016-07-12T07:59:30.893Z,1004.47
2016-07-12T08:00:30.887Z,1004.47
2016-07-12T08:01:30.882Z,1004.45
2016-07-12T08:02:30.874Z,1004.46
2016-07-12T08:03:30.868Z,1004.54
2016-07-12T08:04:30.864Z,1004.5
2016-07-12T08:05:30.856Z,1004.47
2016-07-12T08:06:30.848Z,1004.51
2016-07-12T08:07:30.844Z,1004.48
2016-07-12T08:08:30.838Z,1004.45
2016-07-12T08:09:30.833Z,1004.5
2016-07-12T08:10:30.828Z,1004.54
2016-07-12T08:11:30.820Z,1004.55
2016-07-12T08:12:30.815Z,1004.51
2016-07-12T08:13:30.808Z,1004.48
2016-07-12T08:14:30.803Z,1004.51
2016-07-12T08:15:30.798Z,1004.42
2016-07-12T08:16:30.794Z,1004.45
2016-07-12T08:17:30.788Z,1004.52
2016-07-12T08:18:30.785Z,1004.48
2016-07-12T08:19:30.778Z,1004.5
2016-07-12T08:20:30.775Z,1004.49
2016-07-12T08:21:30.769Z,1004.43
2016-07-12T08:22:30.765Z,1004.52
2016-07-12T08:23:30.761Z,1004.47
2016-07-12T08:24:30.755Z,1004.52
2016-07-12T08:25:30.957Z,1004.45
2016-07-12T08:26:30.752Z,1004.39
2016-07-12T08:27:30.745Z,1004.44
2016-07-12T08:28:30.744Z,1004.47
2016-07-12T08:29:30.747Z,1004.47
2016-07-12T08:30:30.735Z,1004.46
2016-07-12T08:31:30.733Z,1004.48
2016-07-12T08:32:30.731Z,1004.44
2016-07-12T08:33:30.726Z,1004.47
2016-07-12T08:34:30.721Z,1004.41
2016-07-12T08:35:30.721Z,1004.38
2016-07-12T08:36:30.716Z,1004.41
2016-07-12T08:37:30.721Z,1004.36
2016-07-12T08:38:30.712Z,1004.42
2016-07-12T08:39:30.708Z,1004.41
2016-07-12T08:40:30.709Z,1004.45
2016-07-12T08:41:30.705Z,1004.45
2016-07-12T08:42:30.703Z,1004.5
2016-07-12T08:43:30.698Z,1004.44
2016-07-12T08:44:30.696Z,1004.51
2016-07-12T08:45:30.697Z,1004.46
2016-07-12T08:46:30.694Z,1004.48
2016-07-12T08:47:30.694Z,1004.47
2016-07-12T08:48:30.691Z,1004.46
2016-07-12T08:49:30.690Z,1004.43
2016-07-12T08:50:30.690Z,1004.38
2016-07-12T08:51:30.687Z,1004.39
2016-07-12T08:52:30.684Z,1004.44
2016-07-12T08:53:30.683Z,1004.44
2016-07-12T08:54:30.680Z,1004.39
2016-07-12T08:55:30.679Z,1004.45
2016-07-12T08:56:30.676Z,1004.47
2016-07-12T08:57:30.672Z,1004.35
2016-07-12T08:58:30.669Z,1004.36
2016-07-12T08:59:30.666Z,1004.33
2016-07-12T09:00:30.665Z,1004.4
2016-07-12T09:01:30.659Z,1004.34
2016-07-12T09:02:30.654Z,1004.34
2016-07-12T09:03:30.653Z,1004.4
2016-07-12T09:04:30.647Z,1004.43
2016-07-12T09:05:30.643Z,1004.43
2016-07-12T09:06:30.638Z,1004.34
2016-07-12T09:07:30.637Z,1004.41
2016-07-12T09:08:30.628Z,1004.44
2016-07-12T09:09:30.625Z,1004.57
2016-07-12T09:10:30.620Z,1004.55
2016-07-12T09:11:30.619Z,1004.64
2016-07-12T09:12:30.612Z,1004.43
2016-07-12T09:13:30.607Z,1004.4
2016-07-12T09:14:30.605Z,1004.8
2016-07-12T09:15:30.599Z,1004.72
2016-07-12T09:16:30.598Z,1004.73
2016-07-12T09:17:30.591Z,1004.72
2016-07-12T09:18:30.588Z,1004.53
2016-07-12T09:19:30.584Z,1004.83
2016-07-12T09:20:30.580Z,1004.89
2016-07-12T09:21:30.577Z,1004.47
2016-07-12T09:22:30.574Z,1004.9
2016-07-12T09:23:30.570Z,1004.85
2016-07-12T09:24:30.567Z,1004.91
2016-07-12T09:25:30.565Z,1004.8
2016-07-12T09:26:30.562Z,1004.68
2016-07-12T09:27:30.559Z,1004.84
2016-07-12T09:28:30.558Z,1004.92
2016-07-12T09:29:30.554Z,1004.92
2016-07-12T09:30:30.552Z,1004.85
2016-07-12T09:31:30.552Z,1004.74
2016-07-12T09:32:30.550Z,1004.94
2016-07-12T09:33:30.548Z,1004.7
2016-07-12T09:34:30.548Z,1004.84
2016-07-12T09:35:30.547Z,1004.49
2016-07-12T09:36:30.545Z,1004.64
2016-07-12T09:37:30.547Z,1004.48
2016-07-12T09:38:30.543Z,1004.56
2016-07-12T09:39:30.541Z,1004.51
2016-07-12T09:40:30.541Z,1004.49
2016-07-12T09:41:30.543Z,1004.6
2016-07-12T09:42:30.534Z,1004.51
2016-07-12T09:43:30.535Z,1004.54
2016-07-12T09:44:30.529Z,1004.47
2016-07-12T09:45:30.528Z,1004.69
2016-07-12T09:46:30.525Z,1004.89
2016-07-12T09:47:30.524Z,1004.66
2016-07-12T09:48:30.521Z,1004.55
2016-07-12T09:49:30.519Z,1004.78
2016-07-12T09:50:30.520Z,1004.44
2016-07-12T09:51:30.514Z,1004.68
2016-07-12T09:52:30.512Z,1004.49
2016-07-12T09:53:30.509Z,1004.51
2016-07-12T09:54:30.505Z,1004.51
2016-07-12T09:55:30.503Z,1004.69
2016-07-12T09:56:30.500Z,1004.84
2016-07-12T09:57:30.497Z,1004.47
2016-07-12T09:58:30.493Z,1004.43
2016-07-12T09:59:30.490Z,1004.38
2016-07-12T10:00:30.486Z,1004.35
2016-07-12T10:01:30.482Z,1004.41
2016-07-12T10:02:30.478Z,1004.36
2016-07-12T10:03:30.473Z,1004.4
2016-07-12T10:04:30.468Z,1004.44
2016-07-12T10:05:30.468Z,1004.36
2016-07-12T10:06:30.461Z,1004.4
2016-07-12T10:07:30.455Z,1004.28
2016-07-12T10:08:30.449Z,1004.42
2016-07-12T10:09:30.445Z,1004.35
2016-07-12T10:10:30.441Z,1004.25
2016-07-12T10:11:30.435Z,1004.24
2016-07-12T10:12:30.432Z,1004.26
2016-07-12T10:13:30.433Z,1004.23
2016-07-12T10:14:30.423Z,1004.35
2016-07-12T10:15:30.416Z,1004.37
2016-07-12T10:16:30.412Z,1004.35
2016-07-12T10:17:30.410Z,1004.32
2016-07-12T10:18:30.412Z,1004.33
2016-07-12T10:19:30.404Z,1004.41
2016-07-12T10:20:30.401Z,1004.41
2016-07-12T10:21:30.400Z,1004.46
2016-07-12T10:22:30.397Z,1004.41
2016-07-12T10:23:30.396Z,1004.43
2016-07-12T10:24:30.395Z,1004.5
2016-07-12T10:25:30.597Z,1004.57
2016-07-12T10:26:30.391Z,1004.52
2016-07-12T10:27:30.394Z,1004.51
2016-07-12T10:28:30.392Z,1004.5
2016-07-12T10:29:30.392Z,1004.56
2016-07-12T10:31:30.392Z,1004.55
2016-07-12T10:32:30.395Z,1004.53
2016-07-12T10:33:30.397Z,1004.52
2016-07-12T10:35:02.588Z,1004.6
2016-07-12T10:35:30.398Z,1004.58
2016-07-12T10:36:30.395Z,1004.59
2016-07-12T10:37:30.396Z,1004.6
2016-07-12T10:38:30.398Z,1004.66
2016-07-12T10:39:30.400Z,1004.56
2016-07-12T10:40:30.399Z,1004.62
2016-07-12T10:41:30.402Z,1004.39
2016-07-12T10:42:30.409Z,1004.6
2016-07-12T10:43:30.405Z,1004.66
2016-07-12T10:44:30.407Z,1004.42
2016-07-12T10:45:30.408Z,1004.59
2016-07-12T10:46:30.410Z,1004.35
2016-07-12T10:47:30.413Z,1004.4
2016-07-12T10:48:30.415Z,1004.66
2016-07-12T10:49:30.417Z,1004.66
2016-07-12T10:50:30.417Z,1004.68
2016-07-12T10:51:30.418Z,1004.48
2016-07-12T10:52:30.420Z,1004.68
2016-07-12T10:53:30.427Z,1004.46
2016-07-12T10:54:30.422Z,1004.48
2016-07-12T10:55:30.425Z,1004.44
2016-07-12T10:56:30.426Z,1004.5
2016-07-12T10:57:30.427Z,1004.56
2016-07-12T10:58:30.427Z,1004.53
2016-07-12T10:59:30.428Z,1004.53
2016-07-12T11:00:30.431Z,1004.45
2016-07-12T11:01:30.432Z,1004.42
2016-07-12T11:02:30.433Z,1004.4
2016-07-12T11:03:30.435Z,1004.5
2016-07-12T11:04:30.485Z,1004.44
2016-07-12T11:05:30.460Z,1004.53
2016-07-12T11:06:30.435Z,1004.56
2016-07-12T11:07:30.487Z,1004.61
2016-07-12T11:08:30.438Z,1004.5
2016-07-12T11:09:30.435Z,1004.51
2016-07-12T11:10:30.437Z,1004.49
2016-07-12T11:11:30.441Z,1004.43
2016-07-12T11:12:30.440Z,1004.45
2016-07-12T11:13:30.440Z,1004.4
2016-07-12T11:14:30.441Z,1004.38
2016-07-12T11:15:30.449Z,1004.37
2016-07-12T11:16:30.443Z,1004.38
2016-07-12T11:17:30.447Z,1004.37
2016-07-12T11:18:30.452Z,1004.28
2016-07-12T11:19:30.450Z,1004.32
2016-07-12T11:20:30.452Z,1004.33
2016-07-12T11:21:30.454Z,1004.3
2016-07-12T11:22:30.457Z,1004.3
2016-07-12T11:23:30.457Z,1004.3
2016-07-12T11:24:30.460Z,1004.31
2016-07-12T11:25:30.511Z,1004.36
2016-07-12T11:26:30.464Z,1004.36
2016-07-12T11:27:30.467Z,1004.33
2016-07-12T11:28:30.465Z,1004.32
2016-07-12T11:29:30.471Z,1004.33
2016-07-12T11:30:30.472Z,1004.33
2016-07-12T11:31:30.471Z,1004.32
2016-07-12T11:32:30.472Z,1004.27
2016-07-12T11:33:30.474Z,1004.3
2016-07-12T11:34:30.475Z,1004.25
2016-07-12T11:35:30.480Z,1004.25
2016-07-12T11:36:30.481Z,1004.24
2016-07-12T11:37:30.486Z,1004.24
2016-07-12T11:38:30.485Z,1004.19
2016-07-12T11:39:30.487Z,1004.25
2016-07-12T11:40:30.491Z,1004.28
2016-07-12T11:41:30.493Z,1004.28
2016-07-12T11:42:30.527Z,1004.24
2016-07-12T11:43:30.499Z,1004.22
2016-07-12T11:44:30.501Z,1004.24
2016-07-12T11:45:30.503Z,1004.26
2016-07-12T11:46:30.506Z,1004.35
2016-07-12T11:47:30.510Z,1004.29
2016-07-12T11:48:30.516Z,1004.24
2016-07-12T11:49:30.515Z,1004.28
2016-07-12T11:50:30.520Z,1004.24
2016-07-12T11:51:30.523Z,1004.29
2016-07-12T11:52:30.526Z,1004.23
2016-07-12T11:53:30.522Z,1004.22
2016-07-12T11:54:30.527Z,1004.32
2016-07-12T11:55:30.529Z,1004.22
2016-07-12T11:56:30.530Z,1004.25
2016-07-12T11:57:30.528Z,1004.3
2016-07-12T11:58:30.530Z,1004.27
2016-07-12T11:59:30.539Z,1004.28
2016-07-12T12:00:30.534Z,1004.27
2016-07-12T12:01:30.532Z,1004.31
2016-07-12T12:02:30.534Z,1004.26
2016-07-12T12:03:30.533Z,1004.28
2016-07-12T12:04:30.532Z,1004.39
2016-07-12T12:05:30.534Z,1004.3
2016-07-12T12:06:30.535Z,1004.33
2016-07-12T12:07:30.608Z,1004.34
2016-07-12T12:08:30.535Z,1004.24
2016-07-12T12:09:30.537Z,1004.25